メインページ
METAR-TAF:

METAR-TAF

空港 :

アテネ, ギリシャ

アテネ国際空港

緯度: 37-56N, 経度: 023-56E, 海抜: 94m

現時点の気象観測

当レポートは12分前の23:20(UTC)に作成
北/北東の風 2kt
気温 10°C
湿度 76%
気圧 1019 hPa
視程10km以上
高度2500ftの雲はほとんどない

METAR: LGAV 232320Z 02002KT 9999 FEW025 10/06 Q1019 NOSIG

時間: 02:32 (23:32 UTC)

予報

当レポートは6時間32分前の17:00(UTC)に作成
予報は23日の 18時(UTC)から 24日の 18時(UTC)まで有効
南/南西の風 18kt
視程10km以上
高度2500ftの雲はほとんどない
23日の 22時(UTC)から 23日の 24時(UTC)まで徐々に
西の風 8kt
24日の 01時(UTC)から 24日の 03時(UTC)まで徐々に
北/北東の風 12kt
24日の 10時(UTC)から 24日の 12時(UTC)まで徐々に
高度2000ftの雲はほとんどない
高度7000ftの雲は散在している

TAF: LGAV 231700Z 2318/2418 20018KT 9999 FEW025 BECMG 2322/2324 28008KT BECMG 2401/2403 02012KT BECMG 2410/2412 FEW020 SCT070

4,000以上の空港の気象観測と天気予報(METAR報とTAF報)

利用可能な観測所は地図上に黄色い丸と赤い丸で示す。

丸の上にカーソルを重ねると観測所名を参照できる。

次にクリックすると気象観測と天気予報を参照できる。

マップの切り替え:黒色「×」印の緑ボタンをクリックして拡大、「-」印の緑ボタンをクリックして縮小、緑色の三角印をクリックして隣りの地図に切り替え


METAR-TAF: